createdAt,value
2018-04-19T00:00:24.150Z,10.33
2018-04-19T00:02:51.777Z,6.83
2018-04-19T00:05:20.215Z,4.67
2018-04-19T00:07:47.730Z,4.47
2018-04-19T00:10:16.043Z,6.87
2018-04-19T00:12:43.578Z,6.97
2018-04-19T00:15:11.152Z,3.90
2018-04-19T00:17:38.683Z,5.80
2018-04-19T00:20:06.966Z,8.40
2018-04-19T00:22:34.516Z,8.80
2018-04-19T00:25:02.805Z,10.07
2018-04-19T00:27:30.342Z,4.50
2018-04-19T00:29:58.634Z,6.23
2018-04-19T00:32:27.246Z,7.80
2018-04-19T00:34:54.771Z,6.03
2018-04-19T00:37:23.052Z,5.40
2018-04-19T00:39:51.353Z,4.00
2018-04-19T00:42:18.914Z,4.20
2018-04-19T00:44:46.485Z,5.50
2018-04-19T00:47:14.012Z,7.77
2018-04-19T00:49:41.535Z,7.97
2018-04-19T00:52:09.170Z,10.93
2018-04-19T00:54:36.823Z,5.23
2018-04-19T00:57:04.334Z,9.77
2018-04-19T00:59:32.609Z,6.73
2018-04-19T01:02:00.889Z,11.00
2018-04-19T01:04:29.171Z,10.93
2018-04-19T01:06:57.459Z,7.60
2018-04-19T01:09:24.984Z,8.30
2018-04-19T01:11:52.514Z,10.37
2018-04-19T01:14:20.757Z,12.23
2018-04-19T01:16:48.281Z,6.93
2018-04-19T01:19:16.666Z,7.13
2018-04-19T01:21:44.369Z,6.37
2018-04-19T01:24:11.894Z,5.30
2018-04-19T01:26:40.203Z,9.60
2018-04-19T01:29:07.721Z,7.90
2018-04-19T01:31:36.193Z,8.37
2018-04-19T01:34:03.717Z,10.63
2018-04-19T01:36:31.367Z,6.73
2018-04-19T01:38:58.888Z,4.87
2018-04-19T01:41:27.973Z,9.47
2018-04-19T01:43:56.275Z,5.37
2018-04-19T01:46:24.758Z,6.30
2018-04-19T01:48:52.272Z,3.97
2018-04-19T01:51:19.838Z,9.97
2018-04-19T01:53:48.238Z,5.90
2018-04-19T01:56:16.545Z,5.57
2018-04-19T01:58:44.064Z,10.13
2018-04-19T02:01:12.369Z,10.07
2018-04-19T02:03:39.886Z,4.67
2018-04-19T02:06:08.223Z,12.10
2018-04-19T02:08:35.747Z,7.40
2018-04-19T02:11:04.021Z,7.80
2018-04-19T02:13:32.323Z,7.73
2018-04-19T02:15:59.837Z,8.13
2018-04-19T02:18:27.420Z,8.83
2018-04-19T02:20:55.743Z,5.83
2018-04-19T02:23:23.264Z,8.40
2018-04-19T02:25:51.691Z,10.97
2018-04-19T02:28:19.251Z,13.07
2018-04-19T02:30:46.800Z,12.57
2018-04-19T02:33:14.311Z,9.90
2018-04-19T02:35:42.595Z,6.67
2018-04-19T02:38:10.153Z,13.67
2018-04-19T02:40:38.478Z,9.53
2018-04-19T02:43:05.996Z,6.97
2018-04-19T02:45:34.289Z,13.90
2018-04-19T02:48:01.823Z,10.83
2018-04-19T02:50:30.179Z,12.37
2018-04-19T02:52:57.747Z,6.97
2018-04-19T02:55:25.280Z,13.77
2018-04-19T02:57:52.832Z,14.60
2018-04-19T03:00:20.430Z,12.70
2018-04-19T03:02:48.758Z,6.50
2018-04-19T03:05:16.275Z,6.27
2018-04-19T03:07:44.571Z,5.77
2018-04-19T03:10:12.106Z,6.07
2018-04-19T03:12:40.416Z,4.80
2018-04-19T03:15:07.937Z,6.60
2018-04-19T03:17:36.339Z,7.87
2018-04-19T03:20:03.871Z,11.07
2018-04-19T03:22:31.431Z,9.90
2018-04-19T03:24:59.725Z,13.17
2018-04-19T03:27:28.154Z,7.17
2018-04-19T03:29:55.845Z,8.53
2018-04-19T03:32:23.362Z,7.80
2018-04-19T03:34:50.961Z,10.57
2018-04-19T03:37:18.484Z,14.07
2018-04-19T03:39:45.999Z,9.30
2018-04-19T03:42:14.882Z,6.03
2018-04-19T03:44:43.203Z,5.70
2018-04-19T03:47:10.722Z,9.73
2018-04-19T03:49:39.030Z,13.27
2018-04-19T03:52:06.598Z,14.13
2018-04-19T03:54:34.114Z,6.63
2018-04-19T03:57:02.403Z,5.70
2018-04-19T03:59:29.943Z,5.80
2018-04-19T04:01:57.502Z,13.73
2018-04-19T04:04:25.047Z,8.10
2018-04-19T04:06:52.577Z,11.60
2018-04-19T04:09:20.603Z,15.47
2018-04-19T04:11:48.886Z,9.67
2018-04-19T04:14:17.167Z,14.47
2018-04-19T04:16:57.341Z,9.23
2018-04-19T04:19:36.699Z,15.77
2018-04-19T04:22:15.935Z,9.27
2018-04-19T04:24:43.465Z,12.80
2018-04-19T04:27:10.991Z,11.87
2018-04-19T04:29:39.293Z,6.50
2018-04-19T04:32:07.038Z,16.00
2018-04-19T04:34:35.330Z,15.83
2018-04-19T04:37:02.859Z,10.30
2018-04-19T04:39:30.387Z,16.70
2018-04-19T04:41:57.897Z,8.27
2018-04-19T04:44:26.222Z,9.27
2018-04-19T04:46:53.799Z,14.20
2018-04-19T04:49:21.379Z,8.43
2018-04-19T04:51:49.748Z,5.93
2018-04-19T04:54:17.455Z,13.70
2018-04-19T04:56:45.058Z,11.00
2018-04-19T04:59:12.587Z,7.90
2018-04-19T05:01:40.268Z,10.03
2018-04-19T05:04:07.805Z,15.43
2018-04-19T05:06:35.317Z,6.90
2018-04-19T05:09:03.619Z,8.33
2018-04-19T05:11:31.249Z,8.50
2018-04-19T05:13:58.791Z,16.83
2018-04-19T05:16:26.327Z,11.27
2018-04-19T05:18:53.938Z,16.40
2018-04-19T05:21:22.250Z,14.67
2018-04-19T05:23:49.792Z,8.70
2018-04-19T05:26:18.124Z,16.37
2018-04-19T05:28:45.607Z,8.60
2018-04-19T05:31:13.899Z,16.67
2018-04-19T05:33:42.248Z,12.33
2018-04-19T05:36:09.829Z,15.97
2018-04-19T05:38:37.381Z,12.97
2018-04-19T05:41:04.902Z,16.47
2018-04-19T05:43:32.562Z,18.00
2018-04-19T05:46:00.090Z,18.27
2018-04-19T05:48:27.682Z,13.53
2018-04-19T05:50:55.203Z,17.40
2018-04-19T05:53:22.742Z,13.57
2018-04-19T05:55:51.041Z,12.50
2018-04-19T05:58:18.630Z,11.57
2018-04-19T06:00:46.169Z,8.13
2018-04-19T06:03:13.732Z,7.83
2018-04-19T06:05:41.266Z,14.40
2018-04-19T06:08:09.617Z,9.00
2018-04-19T06:10:37.142Z,12.63
2018-04-19T06:13:04.645Z,9.00
2018-04-19T06:15:32.153Z,15.10
2018-04-19T06:17:59.669Z,11.60
2018-04-19T06:20:27.478Z,15.60
2018-04-19T06:22:55.815Z,8.33
2018-04-19T06:25:24.160Z,9.37
2018-04-19T06:27:51.666Z,8.43
2018-04-19T06:30:19.226Z,7.27
2018-04-19T06:32:47.502Z,12.73
2018-04-19T06:35:15.031Z,18.53
2018-04-19T06:37:42.546Z,9.53
2018-04-19T06:40:10.077Z,14.87
2018-04-19T06:42:38.363Z,19.43
2018-04-19T06:45:05.990Z,12.20
2018-04-19T06:47:34.486Z,11.77
2018-04-19T06:50:02.779Z,10.87
2018-04-19T06:52:30.933Z,17.30
2018-04-19T06:54:59.258Z,14.47
2018-04-19T06:57:26.870Z,13.40
2018-04-19T06:59:55.159Z,16.00
2018-04-19T07:02:23.566Z,16.20
2018-04-19T07:04:51.098Z,17.80
2018-04-19T07:07:18.629Z,11.17
2018-04-19T07:09:47.009Z,13.77
2018-04-19T07:12:15.403Z,12.80
2018-04-19T07:14:43.761Z,15.27
2018-04-19T07:17:11.270Z,18.30
2018-04-19T07:19:38.830Z,16.13
2018-04-19T07:22:06.358Z,15.90
2018-04-19T07:24:34.819Z,11.33
2018-04-19T07:27:02.457Z,18.13
2018-04-19T07:29:29.997Z,13.97
2018-04-19T07:31:57.832Z,12.40
2018-04-19T07:34:26.132Z,13.17
2018-04-19T07:36:53.767Z,13.30
2018-04-19T07:39:22.655Z,16.70
2018-04-19T07:41:50.209Z,15.87
2018-04-19T07:44:18.596Z,10.17
2018-04-19T07:46:46.953Z,15.17
2018-04-19T07:49:14.527Z,13.07
2018-04-19T07:51:42.927Z,12.57
2018-04-19T07:54:10.464Z,13.87
2018-04-19T07:56:38.760Z,11.53
2018-04-19T07:59:06.325Z,11.27
2018-04-19T08:01:33.862Z,11.70
2018-04-19T08:04:02.153Z,12.03
2018-04-19T08:06:29.729Z,10.30
2018-04-19T08:08:57.251Z,9.60
2018-04-19T08:11:26.058Z,7.07
2018-04-19T08:13:53.545Z,9.77
2018-04-19T08:16:21.067Z,8.50
2018-04-19T08:18:49.471Z,9.30
2018-04-19T08:21:17.031Z,7.77
2018-04-19T08:23:44.547Z,8.87
2018-04-19T08:26:12.072Z,8.37
2018-04-19T08:28:39.763Z,7.73
2018-04-19T08:31:07.457Z,5.13
2018-04-19T08:33:35.139Z,7.57
2018-04-19T08:36:02.663Z,6.60
2018-04-19T08:38:31.007Z,5.60
2018-04-19T08:40:59.129Z,5.00
2018-04-19T08:43:27.434Z,5.03
2018-04-19T08:45:55.330Z,4.37
2018-04-19T08:48:22.865Z,4.70
2018-04-19T08:50:50.415Z,4.90
2018-04-19T08:53:18.092Z,4.57
2018-04-19T08:55:45.650Z,4.87
2018-04-19T08:58:13.160Z,4.70
2018-04-19T09:00:41.457Z,4.60
2018-04-19T09:03:09.014Z,4.50
2018-04-19T09:05:36.647Z,4.50
2018-04-19T09:08:04.952Z,4.87
2018-04-19T09:10:32.512Z,4.67
2018-04-19T09:13:00.060Z,4.53
2018-04-19T09:15:27.622Z,5.00
2018-04-19T09:17:55.144Z,5.00
2018-04-19T09:20:22.683Z,5.50
2018-04-19T09:22:50.596Z,5.30
2018-04-19T09:25:18.921Z,4.60
2018-04-19T09:27:46.524Z,5.00
2018-04-19T09:30:14.130Z,4.37
2018-04-19T09:32:41.661Z,4.57
2018-04-19T09:35:09.241Z,5.07
2018-04-19T09:37:36.885Z,4.73
2018-04-19T09:40:04.416Z,4.17
2018-04-19T09:42:31.963Z,4.07
2018-04-19T09:44:59.502Z,5.12
2018-04-19T09:47:27.031Z,5.05
2018-04-19T09:49:54.569Z,4.43
2018-04-19T09:52:22.884Z,4.57
2018-04-19T09:54:50.480Z,4.80
2018-04-19T09:57:18.005Z,5.80
2018-04-19T09:59:45.630Z,4.37
2018-04-19T10:02:13.219Z,4.20
2018-04-19T10:04:40.839Z,4.72
2018-04-19T10:07:09.441Z,4.07
2018-04-19T10:09:36.981Z,4.87
2018-04-19T10:12:05.310Z,5.40
2018-04-19T10:14:32.941Z,4.32
2018-04-19T10:17:00.468Z,4.07
2018-04-19T10:19:29.610Z,4.82
2018-04-19T10:21:57.225Z,4.55
2018-04-19T10:24:24.765Z,4.87
2018-04-19T10:26:52.287Z,4.78
2018-04-19T10:29:19.955Z,4.70
2018-04-19T10:31:47.504Z,4.70
2018-04-19T10:34:15.054Z,5.57
2018-04-19T10:36:42.610Z,5.00
2018-04-19T10:39:11.614Z,4.70
2018-04-19T10:41:39.152Z,5.32
2018-04-19T10:44:08.913Z,5.68
2018-04-19T10:46:36.431Z,5.30
2018-04-19T10:49:05.493Z,5.53
2018-04-19T10:51:33.626Z,5.80
2018-04-19T10:54:01.159Z,5.20
2018-04-19T10:56:29.470Z,5.28
2018-04-19T10:58:57.052Z,5.62
2018-04-19T11:01:24.621Z,6.50
2018-04-19T11:03:52.869Z,4.78
2018-04-19T11:06:20.395Z,6.15
2018-04-19T11:08:47.941Z,5.93
2018-04-19T11:11:16.245Z,4.97
2018-04-19T11:13:43.818Z,3.30
2018-04-19T11:16:11.860Z,7.32
2018-04-19T11:18:39.427Z,6.25
2018-04-19T11:21:06.979Z,5.68
2018-04-19T11:23:34.532Z,6.32
2018-04-19T11:26:02.841Z,6.70
2018-04-19T11:28:31.449Z,7.32
2018-04-19T11:30:59.816Z,6.70
2018-04-19T11:33:27.496Z,6.97
2018-04-19T11:35:55.133Z,4.72
2018-04-19T11:38:22.652Z,4.85
2018-04-19T11:40:50.988Z,5.25
2018-04-19T11:43:18.561Z,5.28
2018-04-19T11:45:46.132Z,5.80
2018-04-19T11:48:15.456Z,6.20
2018-04-19T11:50:43.006Z,5.80
2018-04-19T11:53:11.348Z,5.37
2018-04-19T11:55:38.895Z,6.20
2018-04-19T11:58:06.460Z,5.15
2018-04-19T12:00:34.084Z,6.12
2018-04-19T12:03:02.333Z,4.30
2018-04-19T12:05:30.632Z,5.43
2018-04-19T12:07:58.176Z,6.45
2018-04-19T12:10:26.460Z,4.22
2018-04-19T12:12:53.988Z,5.62
2018-04-19T12:15:21.623Z,5.32
2018-04-19T12:17:49.153Z,3.97
2018-04-19T12:20:16.716Z,4.00
2018-04-19T12:22:44.256Z,5.78
2018-04-19T12:25:11.868Z,4.72
2018-04-19T12:27:39.475Z,6.20
2018-04-19T12:30:07.020Z,4.60
2018-04-19T12:32:35.352Z,4.80
2018-04-19T12:35:02.935Z,5.57
2018-04-19T12:37:30.561Z,6.10
2018-04-19T12:39:58.027Z,4.85
2018-04-19T12:42:25.647Z,4.72
2018-04-19T12:44:54.007Z,5.03
2018-04-19T12:47:21.659Z,4.85
2018-04-19T12:49:49.214Z,5.65
2018-04-19T12:52:17.330Z,4.95
2018-04-19T12:54:44.892Z,5.37
2018-04-19T12:57:12.438Z,5.43
2018-04-19T12:59:40.853Z,6.90
2018-04-19T13:02:08.395Z,4.75
2018-04-19T13:04:35.923Z,2.95
2018-04-19T13:07:04.197Z,4.12
2018-04-19T13:09:32.970Z,2.85
2018-04-19T13:12:00.489Z,3.62
2018-04-19T13:14:28.117Z,4.75
2018-04-19T13:16:56.425Z,5.80
2018-04-19T13:19:23.960Z,5.40
2018-04-19T13:21:52.448Z,4.22
2018-04-19T13:24:19.963Z,5.30
2018-04-19T13:26:47.670Z,4.57
2018-04-19T13:29:15.181Z,5.60
2018-04-19T13:31:43.296Z,4.45
2018-04-19T13:34:10.810Z,4.82
2018-04-19T13:36:38.346Z,4.20
2018-04-19T13:39:06.660Z,5.10
2018-04-19T13:41:34.369Z,4.95
2018-04-19T13:44:01.918Z,5.30
2018-04-19T13:46:29.459Z,5.62
2018-04-19T13:48:57.763Z,5.00
2018-04-19T13:51:25.294Z,3.17
2018-04-19T13:53:53.611Z,3.15
2018-04-19T13:56:21.152Z,3.90
2018-04-19T13:58:49.246Z,4.60
2018-04-19T14:01:16.793Z,4.28
2018-04-19T14:03:44.326Z,4.53
2018-04-19T14:06:12.611Z,4.12
2018-04-19T14:08:40.143Z,5.12
2018-04-19T14:11:08.603Z,4.70
2018-04-19T14:13:36.147Z,3.92
2018-04-19T14:16:03.713Z,4.37
2018-04-19T14:18:31.265Z,4.70
2018-04-19T14:20:58.793Z,4.95
2018-04-19T14:23:26.309Z,5.18
2018-04-19T14:25:54.002Z,4.90
2018-04-19T14:28:21.538Z,3.17
2018-04-19T14:30:49.078Z,4.07
2018-04-19T14:33:16.592Z,4.40
2018-04-19T14:35:44.139Z,4.40
2018-04-19T14:38:12.441Z,3.20
2018-04-19T14:40:40.069Z,3.00
2018-04-19T14:43:08.386Z,4.57
2018-04-19T14:45:35.974Z,4.40
2018-04-19T14:48:03.507Z,4.35
2018-04-19T14:50:31.532Z,4.62
2018-04-19T14:52:59.829Z,4.57
2018-04-19T14:55:27.415Z,4.03
2018-04-19T14:57:54.925Z,3.70
2018-04-19T15:00:23.227Z,4.47
2018-04-19T15:02:50.904Z,4.97
2018-04-19T15:05:18.491Z,4.43
2018-04-19T15:07:46.060Z,4.85
2018-04-19T15:10:13.685Z,5.80
2018-04-19T15:12:41.244Z,5.32
2018-04-19T15:15:08.787Z,3.55
2018-04-19T15:17:37.045Z,5.00
2018-04-19T15:20:05.362Z,4.65
2018-04-19T15:22:33.014Z,5.18
2018-04-19T15:25:00.553Z,3.45
2018-04-19T15:27:29.345Z,5.72
2018-04-19T15:29:56.864Z,5.50
2018-04-19T15:32:24.626Z,4.97
2018-04-19T15:34:52.794Z,4.68
2018-04-19T15:37:20.451Z,4.70
2018-04-19T15:39:48.024Z,5.03
2018-04-19T15:42:15.565Z,5.47
2018-04-19T15:44:43.248Z,5.55
2018-04-19T15:47:10.775Z,5.70
2018-04-19T15:49:38.472Z,3.45
2018-04-19T15:52:06.009Z,6.07
2018-04-19T15:54:33.560Z,3.90
2018-04-19T15:57:01.127Z,3.62
2018-04-19T15:59:28.674Z,6.55
2018-04-19T16:01:56.274Z,5.37
2018-04-19T16:04:23.841Z,5.47
2018-04-19T16:06:52.201Z,6.07
2018-04-19T16:09:19.762Z,5.28
2018-04-19T16:11:52.853Z,4.68
2018-04-19T16:14:14.854Z,2.85
2018-04-19T16:16:42.395Z,5.05
2018-04-19T16:19:09.928Z,4.50
2018-04-19T16:21:37.471Z,3.80
2018-04-19T16:24:05.874Z,3.05
2018-04-19T16:26:33.644Z,5.10
2018-04-19T16:29:01.226Z,4.47
2018-04-19T16:31:28.756Z,4.55
2018-04-19T16:33:56.801Z,4.45
2018-04-19T16:36:25.126Z,4.20
2018-04-19T16:38:52.705Z,3.40
2018-04-19T16:41:20.220Z,4.47
2018-04-19T16:43:47.774Z,3.92
2018-04-19T16:46:16.315Z,3.67
2018-04-19T16:48:43.895Z,3.15
2018-04-19T16:51:11.525Z,3.10
2018-04-19T16:53:39.244Z,2.87
2018-04-19T16:56:06.854Z,3.17
2018-04-19T16:58:34.494Z,3.03
2018-04-19T17:01:02.069Z,3.50
2018-04-19T17:03:29.594Z,3.00
2018-04-19T17:05:57.152Z,2.57
2018-04-19T17:08:24.720Z,2.00
2018-04-19T17:10:52.403Z,3.77
2018-04-19T17:13:19.935Z,2.20
2018-04-19T17:15:47.503Z,2.83
2018-04-19T17:18:15.646Z,2.87
2018-04-19T17:20:43.937Z,3.47
2018-04-19T17:23:11.516Z,3.30
2018-04-19T17:25:39.034Z,2.90
2018-04-19T17:28:07.370Z,3.80
2018-04-19T17:30:34.886Z,3.20
2018-04-19T17:33:03.171Z,2.50
2018-04-19T17:35:30.677Z,2.77
2018-04-19T17:37:58.683Z,3.00
2018-04-19T17:40:27.047Z,2.90
2018-04-19T17:42:54.559Z,2.90
2018-04-19T17:45:22.123Z,3.03
2018-04-19T17:47:49.686Z,2.57
2018-04-19T17:50:17.431Z,3.43
2018-04-19T17:52:44.953Z,3.10
2018-04-19T17:55:13.237Z,2.93
2018-04-19T17:57:41.512Z,3.67
2018-04-19T18:00:09.830Z,4.13
2018-04-19T18:02:37.682Z,3.80
2018-04-19T18:05:05.234Z,3.63
2018-04-19T18:07:32.806Z,3.93
2018-04-19T18:10:00.454Z,3.73
2018-04-19T18:12:28.043Z,3.60
2018-04-19T18:14:55.625Z,3.77
2018-04-19T18:17:23.909Z,3.90
2018-04-19T18:19:51.598Z,4.37
2018-04-19T18:22:19.875Z,4.00
2018-04-19T18:24:48.162Z,3.73
2018-04-19T18:27:16.429Z,4.30
2018-04-19T18:29:44.718Z,3.87
2018-04-19T18:32:12.438Z,3.53
2018-04-19T18:34:39.966Z,4.30
2018-04-19T18:37:07.515Z,4.27
2018-04-19T18:39:35.041Z,4.70
2018-04-19T18:42:03.521Z,3.87
2018-04-19T18:44:32.014Z,4.30
2018-04-19T18:47:00.292Z,5.30
2018-04-19T18:49:28.559Z,5.37
2018-04-19T18:51:56.933Z,5.10
2018-04-19T18:54:25.242Z,4.60
2018-04-19T18:56:52.800Z,4.17
2018-04-19T18:59:21.119Z,4.60
2018-04-19T19:01:48.670Z,4.73
2018-04-19T19:04:16.185Z,4.43
2018-04-19T19:06:43.700Z,3.30
2018-04-19T19:09:11.259Z,4.37
2018-04-19T19:11:38.879Z,4.47
2018-04-19T19:14:06.437Z,2.27
2018-04-19T19:16:34.070Z,1.97
2018-04-19T19:19:14.364Z,2.83
2018-04-19T19:21:42.778Z,3.20
2018-04-19T19:24:11.801Z,3.13
2018-04-19T19:26:40.115Z,4.60
2018-04-19T19:29:07.601Z,3.07
2018-04-19T19:31:35.125Z,2.40
2018-04-19T19:34:02.937Z,3.23
2018-04-19T19:36:30.622Z,4.43
2018-04-19T19:38:58.897Z,4.13
2018-04-19T19:41:27.199Z,3.07
2018-04-19T19:43:55.458Z,2.60
2018-04-19T19:46:24.016Z,5.60
2018-04-19T19:48:53.408Z,4.47
2018-04-19T19:51:20.913Z,6.47
2018-04-19T19:53:48.424Z,6.67
2018-04-19T19:56:16.076Z,5.07
2018-04-19T19:58:43.642Z,5.67
2018-04-19T20:01:11.169Z,4.43
2018-04-19T20:03:38.685Z,3.93
2018-04-19T20:06:07.113Z,6.50
2018-04-19T20:08:34.734Z,3.63
2018-04-19T20:11:03.014Z,5.77
2018-04-19T20:13:31.298Z,6.83
2018-04-19T20:15:59.445Z,5.10
2018-04-19T20:18:26.979Z,5.63
2018-04-19T20:20:54.524Z,4.87
2018-04-19T20:23:22.881Z,5.20
2018-04-19T20:25:50.409Z,3.57
2018-04-19T20:28:18.697Z,2.30
2018-04-19T20:30:46.991Z,2.17
2018-04-19T20:33:14.614Z,5.00
2018-04-19T20:35:42.656Z,4.27
2018-04-19T20:38:10.990Z,5.93
2018-04-19T20:40:38.538Z,6.10
2018-04-19T20:43:06.955Z,4.37
2018-04-19T20:45:35.331Z,4.87
2018-04-19T20:48:02.851Z,5.53
2018-04-19T20:50:31.172Z,4.13
2018-04-19T20:52:58.712Z,5.60
2018-04-19T20:55:26.262Z,6.17
2018-04-19T20:57:53.827Z,5.83
2018-04-19T21:00:21.422Z,4.83
2018-04-19T21:02:49.960Z,5.63
2018-04-19T21:05:17.498Z,5.00
2018-04-19T21:07:45.778Z,5.77
2018-04-19T21:10:14.074Z,5.40
2018-04-19T21:12:41.582Z,3.10
2018-04-19T21:15:09.099Z,3.30
2018-04-19T21:17:37.562Z,2.93
2018-04-19T21:20:05.850Z,6.17
2018-04-19T21:22:33.355Z,4.00
2018-04-19T21:25:00.949Z,3.80
2018-04-19T21:27:29.261Z,2.60
2018-04-19T21:29:56.946Z,2.27
2018-04-19T21:32:24.529Z,6.53
2018-04-19T21:34:52.074Z,3.70
2018-04-19T21:37:19.581Z,4.17
2018-04-19T21:39:47.121Z,6.63
2018-04-19T21:42:15.390Z,6.97
2018-04-19T21:44:42.908Z,3.53
2018-04-19T21:47:10.425Z,3.07
2018-04-19T21:49:38.830Z,3.93
2018-04-19T21:52:06.333Z,5.33
2018-04-19T21:54:34.645Z,4.93
2018-04-19T21:57:02.937Z,5.07
2018-04-19T21:59:30.457Z,6.43
2018-04-19T22:01:58.058Z,6.70
2018-04-19T22:04:25.581Z,4.60
2018-04-19T22:06:53.294Z,6.70
2018-04-19T22:09:20.801Z,4.40
2018-04-19T22:11:48.363Z,5.67
2018-04-19T22:14:16.645Z,6.00
2018-04-19T22:16:44.916Z,5.63
2018-04-19T22:19:13.190Z,3.17
2018-04-19T22:21:40.722Z,5.47
2018-04-19T22:24:08.428Z,3.87
2018-04-19T22:26:36.706Z,5.40
2018-04-19T22:29:05.053Z,3.93
2018-04-19T22:31:32.653Z,7.13
2018-04-19T22:34:00.192Z,5.43
2018-04-19T22:36:28.778Z,4.27
2018-04-19T22:38:57.053Z,6.30
2018-04-19T22:41:25.321Z,3.30
2018-04-19T22:43:53.619Z,3.87
2018-04-19T22:46:21.173Z,3.90
2018-04-19T22:48:49.450Z,3.50
2018-04-19T22:51:17.713Z,5.53
2018-04-19T22:53:45.993Z,5.90
2018-04-19T22:56:14.265Z,5.60
2018-04-19T22:58:42.545Z,6.73
2018-04-19T23:01:11.050Z,5.07
2018-04-19T23:03:39.515Z,7.07
2018-04-19T23:06:07.866Z,3.77
2018-04-19T23:08:36.955Z,6.33
2018-04-19T23:11:04.633Z,8.03
2018-04-19T23:13:32.447Z,6.10
2018-04-19T23:15:59.964Z,6.50
2018-04-19T23:18:28.341Z,6.20
2018-04-19T23:20:56.633Z,3.97
2018-04-19T23:23:24.260Z,4.80
2018-04-19T23:25:51.837Z,4.03
2018-04-19T23:28:20.113Z,5.07
2018-04-19T23:30:48.390Z,8.77
2018-04-19T23:33:16.678Z,7.43
2018-04-19T23:35:45.038Z,7.30
2018-04-19T23:38:13.436Z,8.20
2018-04-19T23:40:41.714Z,5.43
2018-04-19T23:43:10.002Z,3.77
2018-04-19T23:45:37.520Z,7.97
2018-04-19T23:48:06.020Z,6.03
2018-04-19T23:50:34.292Z,4.97
2018-04-19T23:53:02.566Z,4.13
2018-04-19T23:55:30.855Z,4.00
2018-04-19T23:57:59.140Z,6.87
